Weston, Connecticut
Current Conditions -  °F | °C
As of 1:53 AM on Saturday 29 Nov 2014 (Local Time) from KDXR Reporting Station
Clear Clear  
Wind Chill: 16°   Ceiling: Unl
Heat Index: 16°   Visibility: 10mi
Dew Point: 11°   Wind: 0mph
Humidity: 81%   Direction: NA
Pressure: 30.27"   Gusts: NA
Location:  41.2°N, 73.38°W
Report Text: KDXR 290653Z AUTO 00000KT 10SM CLR M09/M12 A3027 RMK AO2 SLP256 T10891117
Loading
Personal Weather Stations






























Interactive Weather Map New forecast layout! Learn more

10-Day Weather Forecast

Advertisements
Track Severe Weather on mobile